Pomorze — C6WU2 — position and weather

sailwx.info

Track history (hours):
 
Tides and Currents Weather Stations Pressure Air Temp Water Temp Dewpoint Dewpoint Depression Visibility Wind Speed Wind Dir Waves Ship Positions

Pomorze

Last reported at 2017-Nov-19 15:31 UTC. Time now 2017-Nov-19 15:43 UTC.
Position N 51°25' E 003°22'.

Length 189 m; draft 6.2 m.

Type: Ship. MMSI: 311358000.

Date/timePositionNaut miles runAvg speedWind from/ knotsBaromVisibWave heightAir tempDewpointWater temp
2017-Nov-19 15:31N 51°25' E 003°22'612.5
2017-Nov-19 15:00N 51°25' E 003°32'5 9.8
2017-Nov-19 14:30N 51°26' E 003°40'611.1
2017-Nov-19 14:00N 51°22' E 003°45'510.1
2017-Nov-19 13:30N 51°21' E 003°53'5 9.7
2017-Nov-19 13:00N 51°25' E 003°58'3 6.6
2017-Nov-19 12:30N 51°23' E 004°02'5 9.7
2017-Nov-19 12:00N 51°23' E 004°10'4 8.7
2017-Nov-19 11:30N 51°21' E 004°16'1 1.7
2017-Nov-19 11:01N 51°21' E 004°17'0 0.0
2017-Nov-19 10:30N 51°21' E 004°17'2 4.2
2017-Nov-19 10:00N 51°19' E 004°19'3 6.9
2017-Nov-19 09:30N 51°16' E 004°22'0 0.1
2017-Nov-19 08:59N 51°16' E 004°22'0 0.0
2017-Nov-19 08:29N 51°16' E 004°22'0 0.0
2017-Nov-19 07:59N 51°16' E 004°22'0 0.0
2017-Nov-19 07:29N 51°16' E 004°22'0 0.0
2017-Nov-19 06:59N 51°16' E 004°22'0 0.0
2017-Nov-19 06:29N 51°16' E 004°22'0 0.0
2017-Nov-19 05:59N 51°16' E 004°22'0 0.0
2017-Nov-19 05:29N 51°16' E 004°22'0 0.0
2017-Nov-19 04:59N 51°16' E 004°22'0 0.0
2017-Nov-19 04:26N 51°16' E 004°22'0 0.0
2017-Nov-19 03:59N 51°16' E 004°22'0 0.0
2017-Nov-19 03:29N 51°16' E 004°22'0 0.0
2017-Nov-19 02:59N 51°16' E 004°22'0 0.0
2017-Nov-19 02:29N 51°16' E 004°22'0 0.0
2017-Nov-19 01:56N 51°16' E 004°22'0 0.0
2017-Nov-19 01:29N 51°16' E 004°22'0 0.0
2017-Nov-19 00:53N 51°16' E 004°22'0 0.0
2017-Nov-19 00:26N 51°16' E 004°22'0 0.0
2017-Nov-18 23:59N 51°16' E 004°22'0 0.0
2017-Nov-18 23:29N 51°16' E 004°22'0 0.0
2017-Nov-18 22:56N 51°16' E 004°22'0 0.0
2017-Nov-18 22:29N 51°16' E 004°22'0 0.0
2017-Nov-18 21:59N 51°16' E 004°22'0 0.0
2017-Nov-18 21:26N 51°16' E 004°22'0 0.0
2017-Nov-18 20:59N 51°16' E 004°22'0 0.0
2017-Nov-18 20:26N 51°16' E 004°22'0 0.0
2017-Nov-18 19:59N 51°16' E 004°22'0 0.0
2017-Nov-18 19:26N 51°16' E 004°22'0 0.0
2017-Nov-18 18:56N 51°16' E 004°22'0 0.0
2017-Nov-18 18:29N 51°16' E 004°22'0 0.0
2017-Nov-18 17:59N 51°16' E 004°22'0 0.0
2017-Nov-18 17:29N 51°16' E 004°22'0 0.0
2017-Nov-18 16:59N 51°16' E 004°22'0 0.0
2017-Nov-18 16:29N 51°16' E 004°22'0 0.0
2017-Nov-18 15:59N 51°16' E 004°22'0 0.0
2017-Nov-18 15:29N 51°16' E 004°22'0 0.0
2017-Nov-18 14:59N 51°16' E 004°22'0 0.0
2017-Nov-18 14:29N 51°16' E 004°22'0 0.0
2017-Nov-18 13:59N 51°16' E 004°22'0 0.0
2017-Nov-18 13:29N 51°16' E 004°22'0 0.0
2017-Nov-18 12:59N 51°16' E 004°22'0 0.0
2017-Nov-18 12:29N 51°16' E 004°22'0 0.0
2017-Nov-18 11:56N 51°16' E 004°22'0 0.0
2017-Nov-18 11:29N 51°16' E 004°22'0 0.0
2017-Nov-18 10:56N 51°16' E 004°22'0 0.0
2017-Nov-18 10:29N 51°16' E 004°22'0 0.0
2017-Nov-18 09:59N 51°16' E 004°22'0 0.0
2017-Nov-18 09:29N 51°16' E 004°22'0 0.0
2017-Nov-18 08:53N 51°16' E 004°22'0 0.0
2017-Nov-18 08:29N 51°16' E 004°22'0 0.0
2017-Nov-18 07:59N 51°16' E 004°22'0 0.0
2017-Nov-18 07:29N 51°16' E 004°22'0 0.0
2017-Nov-18 06:59N 51°16' E 004°22'0 0.0
2017-Nov-18 06:29N 51°16' E 004°22'0 0.0
2017-Nov-18 05:56N 51°16' E 004°22'0 0.0
2017-Nov-18 05:29N 51°16' E 004°22'0 0.0
2017-Nov-18 04:56N 51°16' E 004°22'0 0.0
2017-Nov-18 04:29N 51°16' E 004°22'0 0.0
2017-Nov-18 03:59N 51°16' E 004°22'0 0.0
2017-Nov-18 03:29N 51°16' E 004°22'0 0.0
2017-Nov-18 02:59N 51°16' E 004°22'0 0.0
2017-Nov-18 02:29N 51°16' E 004°22'0 0.0
2017-Nov-18 01:59N 51°16' E 004°22'0 0.0
2017-Nov-18 01:29N 51°16' E 004°22'0 0.0
2017-Nov-18 00:59N 51°16' E 004°22'0 0.0
2017-Nov-18 00:29N 51°16' E 004°22'0 0.0
2017-Nov-17 23:56N 51°16' E 004°22'0 0.0
2017-Nov-17 23:29N 51°16' E 004°22'0 0.0
2017-Nov-17 22:56N 51°16' E 004°22'0 0.0
2017-Nov-17 22:26N 51°16' E 004°22'0 0.0
2017-Nov-17 21:59N 51°16' E 004°22'0 0.0
2017-Nov-17 21:26N 51°16' E 004°22'0 0.0
2017-Nov-17 20:56N 51°16' E 004°22'0 0.0
2017-Nov-17 20:29N 51°16' E 004°22'0 0.0
2017-Nov-17 19:56N 51°16' E 004°22'0 0.0
2017-Nov-17 19:20N 51°16' E 004°22'0 0.0
2017-Nov-17 18:50N 51°16' E 004°22'0 0.0
2017-Nov-17 18:29N 51°16' E 004°22'0 0.0
2017-Nov-17 17:59N 51°16' E 004°22'0 0.0
2017-Nov-17 17:29N 51°16' E 004°22'0 0.0
2017-Nov-17 16:56N 51°16' E 004°22'0 0.0
2017-Nov-17 16:29N 51°16' E 004°22'0 0.0
2017-Nov-17 15:59N 51°16' E 004°22'0 0.0
2017-Nov-17 15:29N 51°16' E 004°22'0 0.0
2017-Nov-17 14:59N 51°16' E 004°22'0 0.0
2017-Nov-17 14:26N 51°16' E 004°22'0 0.0
2017-Nov-17 13:59N 51°16' E 004°22'0 0.0
2017-Nov-17 13:29N 51°16' E 004°22'0 0.0
2017-Nov-17 12:59N 51°16' E 004°22'0 0.0
2017-Nov-17 12:29N 51°16' E 004°22'0 0.0
2017-Nov-17 11:59N 51°16' E 004°22'0 0.0
2017-Nov-17 11:29N 51°16' E 004°22'0 0.0
2017-Nov-17 10:59N 51°16' E 004°22'0 0.0
2017-Nov-17 10:29N 51°16' E 004°22'0 0.0
2017-Nov-17 09:59N 51°16' E 004°22'0 0.0
2017-Nov-17 09:26N 51°16' E 004°22'0 0.0
2017-Nov-17 08:59N 51°16' E 004°22'0 0.0
2017-Nov-17 08:26N 51°16' E 004°22'0 0.0
2017-Nov-17 07:56N 51°16' E 004°22'0 0.0
2017-Nov-17 07:29N 51°16' E 004°22'0 0.0
2017-Nov-17 06:59N 51°16' E 004°22'0 0.0
2017-Nov-17 06:23N 51°16' E 004°22'0 0.0
2017-Nov-17 05:59N 51°16' E 004°22'0 0.0
2017-Nov-17 05:26N 51°16' E 004°22'0 0.0
2017-Nov-17 04:59N 51°16' E 004°22'0 0.0
2017-Nov-17 04:29N 51°16' E 004°22'0 0.0
2017-Nov-17 03:59N 51°16' E 004°22'0 0.0
2017-Nov-17 03:29N 51°16' E 004°22'0 0.0
2017-Nov-17 02:59N 51°16' E 004°22'0 0.0
2017-Nov-17 02:29N 51°16' E 004°22'0 0.0
2017-Nov-17 01:56N 51°16' E 004°22'0 0.0
2017-Nov-17 01:29N 51°16' E 004°22'0 0.0
2017-Nov-17 00:56N 51°16' E 004°22'0 0.0
2017-Nov-17 00:29N 51°16' E 004°22'0 0.0
2017-Nov-16 23:59N 51°16' E 004°22'0 0.0
2017-Nov-16 23:26N 51°16' E 004°22'0 0.0
2017-Nov-16 22:59N 51°16' E 004°22'0 0.0
2017-Nov-16 22:29N 51°16' E 004°22'0 0.0
2017-Nov-16 21:59N 51°16' E 004°22'0 0.0
2017-Nov-16 21:29N 51°16' E 004°22'0 0.0
2017-Nov-16 20:59N 51°16' E 004°22'0 0.0
2017-Nov-16 20:29N 51°16' E 004°22'0 0.0
2017-Nov-16 19:59N 51°16' E 004°22'0 0.0
2017-Nov-16 19:29N 51°16' E 004°22'0 0.0
2017-Nov-16 18:56N 51°16' E 004°22'0 0.0
2017-Nov-16 18:26N 51°16' E 004°22'0 0.0
2017-Nov-16 17:59N 51°16' E 004°22'0 0.0
2017-Nov-16 17:29N 51°16' E 004°22'0 0.0
2017-Nov-16 16:56N 51°16' E 004°22'0 0.0
2017-Nov-16 16:26N 51°16' E 004°22'0 0.0
2017-Nov-16 15:59N 51°16' E 004°22'0 0.0
2017-Nov-16 15:26N 51°16' E 004°22'0 0.0
2017-Nov-16 14:59N 51°16' E 004°22'0 0.0
2017-Nov-16 14:26N 51°16' E 004°22'0 0.0
2017-Nov-16 13:59N 51°16' E 004°22'0 0.0
2017-Nov-16 13:29N 51°16' E 004°22'0 0.0
2017-Nov-16 12:56N 51°16' E 004°22'0 0.0
2017-Nov-16 12:29N 51°16' E 004°22'0 0.0
2017-Nov-16 11:59N 51°16' E 004°22'0 0.0
2017-Nov-16 11:29N 51°16' E 004°22'0 0.0
2017-Nov-16 10:59N 51°16' E 004°22'0 0.0
2017-Nov-16 10:26N 51°16' E 004°22'0 0.0
2017-Nov-16 09:59N 51°16' E 004°22'0 0.0
2017-Nov-16 09:26N 51°16' E 004°22'0 0.0
2017-Nov-16 08:56N 51°16' E 004°22'0 0.0
2017-Nov-16 08:26N 51°16' E 004°22'0 0.0
2017-Nov-16 07:59N 51°16' E 004°22'0 0.0
2017-Nov-16 07:29N 51°16' E 004°22'0 0.0
2017-Nov-16 06:59N 51°16' E 004°22'0 0.0
2017-Nov-16 06:29N 51°16' E 004°22'0 0.0
2017-Nov-16 05:59N 51°16' E 004°22'0 0.0
2017-Nov-16 05:29N 51°16' E 004°22'0 0.0
2017-Nov-16 04:56N 51°16' E 004°22'0 0.0
2017-Nov-16 04:29N 51°16' E 004°22'0 0.0
2017-Nov-16 03:50N 51°16' E 004°22'0 0.0
2017-Nov-16 03:29N 51°16' E 004°22'0 0.0
2017-Nov-16 02:59N 51°16' E 004°22'0 0.0
2017-Nov-16 02:29N 51°16' E 004°22'0 0.0
2017-Nov-16 01:59N 51°16' E 004°22'0 0.0
2017-Nov-16 01:26N 51°16' E 004°22'0 0.0
2017-Nov-16 00:56N 51°16' E 004°22'0 0.0
2017-Nov-16 00:26N 51°16' E 004°22'0 0.0
2017-Nov-15 23:56N 51°16' E 004°22'0 0.0
2017-Nov-15 23:29N 51°16' E 004°22'0 0.0
2017-Nov-15 22:59N 51°16' E 004°22'0 0.0
2017-Nov-15 22:29N 51°16' E 004°22'0 0.0
2017-Nov-15 21:56N 51°16' E 004°22'0 0.0
2017-Nov-15 21:29N 51°16' E 004°22'0 0.0
2017-Nov-15 20:59N 51°16' E 004°22'0 0.0
2017-Nov-15 20:29N 51°16' E 004°22'0 0.0
2017-Nov-15 19:59N 51°16' E 004°22'0 0.0
2017-Nov-15 19:26N 51°16' E 004°22'0 0.0
2017-Nov-15 18:59N 51°16' E 004°22'0 0.0
2017-Nov-15 18:29N 51°16' E 004°22'0 0.0
2017-Nov-15 17:59N 51°16' E 004°22'0 0.0
2017-Nov-15 17:29N 51°16' E 004°22'0 0.0
2017-Nov-15 16:59N 51°16' E 004°22'0 0.0
2017-Nov-15 16:26N 51°16' E 004°22'0 0.0
2017-Nov-15 15:59N 51°16' E 004°22'0 0.0
2017-Nov-15 15:29N 51°16' E 004°22'0 0.0
2017-Nov-15 14:56N 51°16' E 004°22'0 0.0
2017-Nov-15 14:29N 51°16' E 004°22'0 0.0
2017-Nov-15 13:59N 51°16' E 004°22'0 0.0
2017-Nov-15 13:29N 51°16' E 004°22'0 0.0
2017-Nov-15 12:59N 51°16' E 004°22'0 0.0
2017-Nov-15 12:29N 51°16' E 004°22'0 0.0
2017-Nov-15 11:59N 51°16' E 004°22'0 0.0
2017-Nov-15 11:29N 51°16' E 004°22'0 0.0
2017-Nov-15 10:53N 51°16' E 004°22'0 0.0
2017-Nov-15 10:26N 51°16' E 004°22'0 0.0
2017-Nov-15 09:59N 51°16' E 004°22'0 0.0
2017-Nov-15 09:29N 51°16' E 004°22'0 0.0
2017-Nov-15 08:56N 51°16' E 004°22'0 0.0
2017-Nov-15 08:29N 51°16' E 004°22'0 0.0
2017-Nov-15 07:59N 51°16' E 004°22'0 0.0
2017-Nov-15 07:29N 51°16' E 004°22'0 0.0
2017-Nov-15 06:59N 51°16' E 004°22'0 0.0
2017-Nov-15 06:26N 51°16' E 004°22'0 0.0
2017-Nov-15 05:53N 51°16' E 004°22'0 0.0
2017-Nov-15 05:29N 51°16' E 004°22'0 0.0
2017-Nov-15 04:56N 51°16' E 004°22'0 0.0
2017-Nov-15 04:29N 51°16' E 004°22'0 0.0
2017-Nov-15 03:59N 51°16' E 004°22'0 0.0
2017-Nov-15 03:29N 51°16' E 004°22'0 0.0
2017-Nov-15 02:59N 51°16' E 004°22'0 0.0
2017-Nov-15 02:29N 51°16' E 004°22'0 0.0
2017-Nov-15 01:53N 51°16' E 004°22'0 0.0
2017-Nov-15 01:29N 51°16' E 004°22'0 0.0
2017-Nov-15 00:59N 51°16' E 004°22'0 0.0
2017-Nov-15 00:29N 51°16' E 004°22'0 0.7
2017-Nov-15 00:00N 51°16' E 004°22'2 3.5
2017-Nov-14 23:30N 51°18' E 004°20'3 6.6
2017-Nov-14 23:00N 51°21' E 004°18'1 1.1
2017-Nov-14 22:30N 51°21' E 004°17'0 0.0
2017-Nov-14 22:00N 51°21' E 004°17'0 0.7
2017-Nov-14 21:30N 51°21' E 004°16'2 5.0
2017-Nov-14 21:00N 51°22' E 004°13'3 6.5
2017-Nov-14 20:30N 51°22' E 004°08'5 9.2
2017-Nov-14 20:00N 51°25' E 004°02'4 8.4
2017-Nov-14 19:30N 51°23' E 003°56'611.7
2017-Nov-14 19:00N 51°21' E 003°47'511.0
2017-Nov-14 18:30N 51°25' E 003°42'5 9.2
2017-Nov-14 18:00N 51°25' E 003°34'4 7.4
2017-Nov-14 17:30N 51°25' E 003°28'4 8.2
2017-Nov-14 17:00N 51°24' E 003°22'510.8
2017-Nov-14 16:30N 51°24' E 003°13'510.8
2017-Nov-14 16:00N 51°24' E 003°05'511.0
2017-Nov-14 15:30N 51°23' E 002°56'611.6
2017-Nov-14 14:58N 51°22' E 002°46'510.8
2017-Nov-14 14:30N 51°22' E 002°38'3 6.4
2017-Nov-14 14:00N 51°25' E 002°36'0 0.1
2017-Nov-14 13:26N 51°25' E 002°36'0 0.0
2017-Nov-14 12:56N 51°25' E 002°36'0 0.0
2017-Nov-14 12:29N 51°25' E 002°36'0 0.0
2017-Nov-14 11:44N 51°25' E 002°36'0 0.0
2017-Nov-14 11:23N 51°25' E 002°36'0 0.0
2017-Nov-14 10:59N 51°25' E 002°36'0 0.0
2017-Nov-14 10:26N 51°25' E 002°36'0 0.0
2017-Nov-14 09:44N 51°25' E 002°36'0 0.0
2017-Nov-14 09:26N 51°25' E 002°36'0 0.0
2017-Nov-14 08:59N 51°25' E 002°36'0 0.1
2017-Nov-14 08:29N 51°25' E 002°36'0 0.0
2017-Nov-14 07:56N 51°25' E 002°36'0 0.1
2017-Nov-14 07:29N 51°25' E 002°36'0 0.3
2017-Nov-14 06:59N 51°25' E 002°35'0 0.1
2017-Nov-14 06:29N 51°25' E 002°35'0 0.1
2017-Nov-14 05:47N 51°25' E 002°35'0 0.0
2017-Nov-14 05:29N 51°25' E 002°35'0 0.4
2017-Nov-14 04:58N 51°25' E 002°36'2 3.9
2017-Nov-14 04:29N 51°24' E 002°34'3 6.8
2017-Nov-14 04:00N 51°22' E 002°29'4 8.3
2017-Nov-14 03:31N 51°20' E 002°23'510.2
2017-Nov-14 03:00N 51°19' E 002°15'510.8
2017-Nov-14 02:30N 51°20' E 002°07'611.5
2017-Nov-14 02:00N 51°24' E 001°60'5 9.1
2017-Nov-14 01:31N 51°28' E 002°02'3 6.6
2017-Nov-14 01:01N 51°30' E 002°06'510.1
2017-Nov-14 00:30N 51°34' E 002°11'510.2
2017-Nov-14 00:01N 51°38' E 002°17'4 7.5
2017-Nov-13 23:31N 51°41' E 002°21'44510.8
2017-Nov-12 06:30N 57°48' E 009°34'510.5
2017-Nov-12 06:00N 57°49' E 009°44'610.9
2017-Nov-12 05:29N 57°50' E 009°54'511.1
2017-Nov-12 05:00N 57°49' E 010°05'611.4
2017-Nov-12 04:30N 57°49' E 010°15'611.3
2017-Nov-12 04:00N 57°49' E 010°26'611.0
2017-Nov-12 03:30N 57°49' E 010°36'510.9
2017-Nov-12 03:00N 57°48' E 010°46'611.5
2017-Nov-12 02:29N 57°43' E 010°54'611.8
2017-Nov-12 01:59N 57°40' E 011°02'511.2
2017-Nov-12 01:30N 57°36' E 011°10'611.6
2017-Nov-12 01:00N 57°32' E 011°18'611.4
2017-Nov-12 00:30N 57°28' E 011°26'611.1
2017-Nov-12 00:00N 57°23' E 011°29'611.5
2017-Nov-11 23:30N 57°18' E 011°33'611.4
2017-Nov-11 23:00N 57°12' E 011°37'611.4
2017-Nov-11 22:30N 57°07' E 011°40'711.6
2017-Nov-11 21:56N 57°01' E 011°44'10010.1
2017-Nov-11 11:58N 55°23' E 011°01'5 9.5
2017-Nov-11 11:29N 55°19' E 011°03'5 9.6
2017-Nov-11 11:00N 55°15' E 011°06'5 9.5
2017-Nov-11 10:31N 55°10' E 011°03'510.5
2017-Nov-11 10:00N 55°05' E 011°03'611.0
2017-Nov-11 09:31N 54°59' E 011°02'5 9.5
2017-Nov-11 09:00N 54°56' E 010°56'4 7.6
2017-Nov-11 08:31N 54°52' E 010°53'5 9.0
2017-Nov-11 08:00N 54°48' E 010°52'510.0
2017-Nov-11 07:30N 54°43' E 010°53'5 9.6
2017-Nov-11 07:00N 54°40' E 010°59'5 9.7
2017-Nov-11 06:30N 54°38' E 011°07'5 9.8
2017-Nov-11 06:00N 54°35' E 011°14'5 9.9
2017-Nov-11 05:30N 54°33' E 011°22'5 9.6
2017-Nov-11 05:00N 54°31' E 011°29'5 9.6
2017-Nov-11 04:30N 54°29' E 011°37'5 9.6
2017-Nov-11 04:00N 54°27' E 011°44'5 9.4
2017-Nov-11 03:30N 54°26' E 011°52'7 9.5
2017-Nov-11 02:47N 54°26' E 012°04'3 9.3
2017-Nov-11 02:30N 54°26' E 012°08'4 8.9
2017-Nov-11 02:00N 54°30' E 012°13'510.1
2017-Nov-11 01:30N 54°34' E 012°15'57 9.5
2017-Nov-10 19:27N 54°60' E 013°44'11 9.8
2017-Nov-10 18:18N 55°04' E 014°03'410.1
2017-Nov-10 17:55N 55°07' E 014°08'410.8
2017-Nov-10 17:30N 55°10' E 014°13'510.8
2017-Nov-10 17:00N 55°14' E 014°19'510.5
2017-Nov-10 16:30N 55°18' E 014°24'510.7
2017-Nov-10 16:00N 55°23' E 014°30'510.4
2017-Nov-10 15:30N 55°27' E 014°36'510.5
2017-Nov-10 15:00N 55°29' E 014°45'510.7
2017-Nov-10 14:30N 55°31' E 014°53'611.0
2017-Nov-10 13:59N 55°34' E 015°02'511.1
2017-Nov-10 13:30N 55°36' E 015°10'511.0
2017-Nov-10 13:00N 55°39' E 015°19'510.8
2017-Nov-10 12:30N 55°42' E 015°27'510.8
2017-Nov-10 12:00N 55°44' E 015°35'611.1
2017-Nov-10 11:30N 55°47' E 015°44'511.0
2017-Nov-10 11:00N 55°50' E 015°52'510.7
2017-Nov-10 10:30N 55°53' E 016°00'511.0
2017-Nov-10 10:00N 55°56' E 016°09'510.9
2017-Nov-10 09:30N 55°59' E 016°16'510.9
2017-Nov-10 09:00N 56°02' E 016°25'510.9
2017-Nov-10 08:30N 56°04' E 016°33'611.0
2017-Nov-10 08:00N 56°07' E 016°42'611.0
2017-Nov-10 07:30N 56°10' E 016°50'610.7
2017-Nov-10 06:55N 56°14' E 016°59'  
Track history (hours):
 
Tides and Currents Weather Stations Pressure Air Temp Water Temp Dewpoint Dewpoint Depression Visibility Wind Speed Wind Dir Waves Ship Positions

Pomorze

Last reported at 2017-Nov-19 15:31 UTC. Time now 2017-Nov-19 15:43 UTC.
Position N 51°25' E 003°22'.

Length 189 m; draft 6.2 m.

Type: Ship. MMSI: 311358000.

Date/timePositionNaut miles runAvg speedWind from/ knotsBaromVisibWave heightAir tempDewpointWater temp
2017-Nov-19 15:31N 51°25' E 003°22'612.5
2017-Nov-19 15:00N 51°25' E 003°32'5 9.8
2017-Nov-19 14:30N 51°26' E 003°40'611.1
2017-Nov-19 14:00N 51°22' E 003°45'510.1
2017-Nov-19 13:30N 51°21' E 003°53'5 9.7
2017-Nov-19 13:00N 51°25' E 003°58'3 6.6
2017-Nov-19 12:30N 51°23' E 004°02'5 9.7
2017-Nov-19 12:00N 51°23' E 004°10'4 8.7
2017-Nov-19 11:30N 51°21' E 004°16'1 1.7
2017-Nov-19 11:01N 51°21' E 004°17'0 0.0
2017-Nov-19 10:30N 51°21' E 004°17'2 4.2
2017-Nov-19 10:00N 51°19' E 004°19'3 6.9
2017-Nov-19 09:30N 51°16' E 004°22'0 0.1
2017-Nov-19 08:59N 51°16' E 004°22'0 0.0
2017-Nov-19 08:29N 51°16' E 004°22'0 0.0
2017-Nov-19 07:59N 51°16' E 004°22'0 0.0
2017-Nov-19 07:29N 51°16' E 004°22'0 0.0
2017-Nov-19 06:59N 51°16' E 004°22'0 0.0
2017-Nov-19 06:29N 51°16' E 004°22'0 0.0
2017-Nov-19 05:59N 51°16' E 004°22'0 0.0
2017-Nov-19 05:29N 51°16' E 004°22'0 0.0
2017-Nov-19 04:59N 51°16' E 004°22'0 0.0
2017-Nov-19 04:26N 51°16' E 004°22'0 0.0
2017-Nov-19 03:59N 51°16' E 004°22'0 0.0
2017-Nov-19 03:29N 51°16' E 004°22'0 0.0
2017-Nov-19 02:59N 51°16' E 004°22'0 0.0
2017-Nov-19 02:29N 51°16' E 004°22'0 0.0
2017-Nov-19 01:56N 51°16' E 004°22'0 0.0
2017-Nov-19 01:29N 51°16' E 004°22'0 0.0
2017-Nov-19 00:53N 51°16' E 004°22'0 0.0
2017-Nov-19 00:26N 51°16' E 004°22'0 0.0
2017-Nov-18 23:59N 51°16' E 004°22'0 0.0
2017-Nov-18 23:29N 51°16' E 004°22'0 0.0
2017-Nov-18 22:56N 51°16' E 004°22'0 0.0
2017-Nov-18 22:29N 51°16' E 004°22'0 0.0
2017-Nov-18 21:59N 51°16' E 004°22'0 0.0
2017-Nov-18 21:26N 51°16' E 004°22'0 0.0
2017-Nov-18 20:59N 51°16' E 004°22'0 0.0
2017-Nov-18 20:26N 51°16' E 004°22'0 0.0
2017-Nov-18 19:59N 51°16' E 004°22'0 0.0
2017-Nov-18 19:26N 51°16' E 004°22'0 0.0
2017-Nov-18 18:56N 51°16' E 004°22'0 0.0
2017-Nov-18 18:29N 51°16' E 004°22'0 0.0
2017-Nov-18 17:59N 51°16' E 004°22'0 0.0
2017-Nov-18 17:29N 51°16' E 004°22'0 0.0
2017-Nov-18 16:59N 51°16' E 004°22'0 0.0
2017-Nov-18 16:29N 51°16' E 004°22'0 0.0
2017-Nov-18 15:59N 51°16' E 004°22'0 0.0
2017-Nov-18 15:29N 51°16' E 004°22'0 0.0
2017-Nov-18 14:59N 51°16' E 004°22'0 0.0
2017-Nov-18 14:29N 51°16' E 004°22'0 0.0
2017-Nov-18 13:59N 51°16' E 004°22'0 0.0
2017-Nov-18 13:29N 51°16' E 004°22'0 0.0
2017-Nov-18 12:59N 51°16' E 004°22'0 0.0
2017-Nov-18 12:29N 51°16' E 004°22'0 0.0
2017-Nov-18 11:56N 51°16' E 004°22'0 0.0
2017-Nov-18 11:29N 51°16' E 004°22'0 0.0
2017-Nov-18 10:56N 51°16' E 004°22'0 0.0
2017-Nov-18 10:29N 51°16' E 004°22'0 0.0
2017-Nov-18 09:59N 51°16' E 004°22'0 0.0
2017-Nov-18 09:29N 51°16' E 004°22'0 0.0
2017-Nov-18 08:53N 51°16' E 004°22'0 0.0
2017-Nov-18 08:29N 51°16' E 004°22'0 0.0
2017-Nov-18 07:59N 51°16' E 004°22'0 0.0
2017-Nov-18 07:29N 51°16' E 004°22'0 0.0
2017-Nov-18 06:59N 51°16' E 004°22'0 0.0
2017-Nov-18 06:29N 51°16' E 004°22'0 0.0
2017-Nov-18 05:56N 51°16' E 004°22'0 0.0
2017-Nov-18 05:29N 51°16' E 004°22'0 0.0
2017-Nov-18 04:56N 51°16' E 004°22'0 0.0
2017-Nov-18 04:29N 51°16' E 004°22'0 0.0
2017-Nov-18 03:59N 51°16' E 004°22'0 0.0
2017-Nov-18 03:29N 51°16' E 004°22'0 0.0
2017-Nov-18 02:59N 51°16' E 004°22'0 0.0
2017-Nov-18 02:29N 51°16' E 004°22'0 0.0
2017-Nov-18 01:59N 51°16' E 004°22'0 0.0
2017-Nov-18 01:29N 51°16' E 004°22'0 0.0
2017-Nov-18 00:59N 51°16' E 004°22'0 0.0
2017-Nov-18 00:29N 51°16' E 004°22'0 0.0
2017-Nov-17 23:56N 51°16' E 004°22'0 0.0
2017-Nov-17 23:29N 51°16' E 004°22'0 0.0
2017-Nov-17 22:56N 51°16' E 004°22'0 0.0
2017-Nov-17 22:26N 51°16' E 004°22'0 0.0
2017-Nov-17 21:59N 51°16' E 004°22'0 0.0
2017-Nov-17 21:26N 51°16' E 004°22'0 0.0
2017-Nov-17 20:56N 51°16' E 004°22'0 0.0
2017-Nov-17 20:29N 51°16' E 004°22'0 0.0
2017-Nov-17 19:56N 51°16' E 004°22'0 0.0
2017-Nov-17 19:20N 51°16' E 004°22'0 0.0
2017-Nov-17 18:50N 51°16' E 004°22'0 0.0
2017-Nov-17 18:29N 51°16' E 004°22'0 0.0
2017-Nov-17 17:59N 51°16' E 004°22'0 0.0
2017-Nov-17 17:29N 51°16' E 004°22'0 0.0
2017-Nov-17 16:56N 51°16' E 004°22'0 0.0
2017-Nov-17 16:29N 51°16' E 004°22'0 0.0
2017-Nov-17 15:59N 51°16' E 004°22'0 0.0
2017-Nov-17 15:29N 51°16' E 004°22'0 0.0
2017-Nov-17 14:59N 51°16' E 004°22'0 0.0
2017-Nov-17 14:26N 51°16' E 004°22'0 0.0
2017-Nov-17 13:59N 51°16' E 004°22'0 0.0
2017-Nov-17 13:29N 51°16' E 004°22'0 0.0
2017-Nov-17 12:59N 51°16' E 004°22'0 0.0
2017-Nov-17 12:29N 51°16' E 004°22'0 0.0
2017-Nov-17 11:59N 51°16' E 004°22'0 0.0
2017-Nov-17 11:29N 51°16' E 004°22'0 0.0
2017-Nov-17 10:59N 51°16' E 004°22'0 0.0
2017-Nov-17 10:29N 51°16' E 004°22'0 0.0
2017-Nov-17 09:59N 51°16' E 004°22'0 0.0
2017-Nov-17 09:26N 51°16' E 004°22'0 0.0
2017-Nov-17 08:59N 51°16' E 004°22'0 0.0
2017-Nov-17 08:26N 51°16' E 004°22'0 0.0
2017-Nov-17 07:56N 51°16' E 004°22'0 0.0
2017-Nov-17 07:29N 51°16' E 004°22'0 0.0
2017-Nov-17 06:59N 51°16' E 004°22'0 0.0
2017-Nov-17 06:23N 51°16' E 004°22'0 0.0
2017-Nov-17 05:59N 51°16' E 004°22'0 0.0
2017-Nov-17 05:26N 51°16' E 004°22'0 0.0
2017-Nov-17 04:59N 51°16' E 004°22'0 0.0
2017-Nov-17 04:29N 51°16' E 004°22'0 0.0
2017-Nov-17 03:59N 51°16' E 004°22'0 0.0
2017-Nov-17 03:29N 51°16' E 004°22'0 0.0
2017-Nov-17 02:59N 51°16' E 004°22'0 0.0
2017-Nov-17 02:29N 51°16' E 004°22'0 0.0
2017-Nov-17 01:56N 51°16' E 004°22'0 0.0
2017-Nov-17 01:29N 51°16' E 004°22'0 0.0
2017-Nov-17 00:56N 51°16' E 004°22'0 0.0
2017-Nov-17 00:29N 51°16' E 004°22'0 0.0
2017-Nov-16 23:59N 51°16' E 004°22'0 0.0
2017-Nov-16 23:26N 51°16' E 004°22'0 0.0
2017-Nov-16 22:59N 51°16' E 004°22'0 0.0
2017-Nov-16 22:29N 51°16' E 004°22'0 0.0
2017-Nov-16 21:59N 51°16' E 004°22'0 0.0
2017-Nov-16 21:29N 51°16' E 004°22'0 0.0
2017-Nov-16 20:59N 51°16' E 004°22'0 0.0
2017-Nov-16 20:29N 51°16' E 004°22'0 0.0
2017-Nov-16 19:59N 51°16' E 004°22'0 0.0
2017-Nov-16 19:29N 51°16' E 004°22'0 0.0
2017-Nov-16 18:56N 51°16' E 004°22'0 0.0
2017-Nov-16 18:26N 51°16' E 004°22'0 0.0
2017-Nov-16 17:59N 51°16' E 004°22'0 0.0
2017-Nov-16 17:29N 51°16' E 004°22'0 0.0
2017-Nov-16 16:56N 51°16' E 004°22'0 0.0
2017-Nov-16 16:26N 51°16' E 004°22'0 0.0
2017-Nov-16 15:59N 51°16' E 004°22'0 0.0
2017-Nov-16 15:26N 51°16' E 004°22'0 0.0
2017-Nov-16 14:59N 51°16' E 004°22'0 0.0
2017-Nov-16 14:26N 51°16' E 004°22'0 0.0
2017-Nov-16 13:59N 51°16' E 004°22'0 0.0
2017-Nov-16 13:29N 51°16' E 004°22'0 0.0
2017-Nov-16 12:56N 51°16' E 004°22'0 0.0
2017-Nov-16 12:29N 51°16' E 004°22'0 0.0
2017-Nov-16 11:59N 51°16' E 004°22'0 0.0
2017-Nov-16 11:29N 51°16' E 004°22'0 0.0
2017-Nov-16 10:59N 51°16' E 004°22'0 0.0
2017-Nov-16 10:26N 51°16' E 004°22'0 0.0
2017-Nov-16 09:59N 51°16' E 004°22'0 0.0
2017-Nov-16 09:26N 51°16' E 004°22'0 0.0
2017-Nov-16 08:56N 51°16' E 004°22'0 0.0
2017-Nov-16 08:26N 51°16' E 004°22'0 0.0
2017-Nov-16 07:59N 51°16' E 004°22'0 0.0
2017-Nov-16 07:29N 51°16' E 004°22'0 0.0
2017-Nov-16 06:59N 51°16' E 004°22'0 0.0
2017-Nov-16 06:29N 51°16' E 004°22'0 0.0
2017-Nov-16 05:59N 51°16' E 004°22'0 0.0
2017-Nov-16 05:29N 51°16' E 004°22'0 0.0
2017-Nov-16 04:56N 51°16' E 004°22'0 0.0
2017-Nov-16 04:29N 51°16' E 004°22'0 0.0
2017-Nov-16 03:50N 51°16' E 004°22'0 0.0
2017-Nov-16 03:29N 51°16' E 004°22'0 0.0
2017-Nov-16 02:59N 51°16' E 004°22'0 0.0
2017-Nov-16 02:29N 51°16' E 004°22'0 0.0
2017-Nov-16 01:59N 51°16' E 004°22'0 0.0
2017-Nov-16 01:26N 51°16' E 004°22'0 0.0
2017-Nov-16 00:56N 51°16' E 004°22'0 0.0
2017-Nov-16 00:26N 51°16' E 004°22'0 0.0
2017-Nov-15 23:56N 51°16' E 004°22'0 0.0
2017-Nov-15 23:29N 51°16' E 004°22'0 0.0
2017-Nov-15 22:59N 51°16' E 004°22'0 0.0
2017-Nov-15 22:29N 51°16' E 004°22'0 0.0
2017-Nov-15 21:56N 51°16' E 004°22'0 0.0
2017-Nov-15 21:29N 51°16' E 004°22'0 0.0
2017-Nov-15 20:59N 51°16' E 004°22'0 0.0
2017-Nov-15 20:29N 51°16' E 004°22'0 0.0
2017-Nov-15 19:59N 51°16' E 004°22'0 0.0
2017-Nov-15 19:26N 51°16' E 004°22'0 0.0
2017-Nov-15 18:59N 51°16' E 004°22'0 0.0
2017-Nov-15 18:29N 51°16' E 004°22'0 0.0
2017-Nov-15 17:59N 51°16' E 004°22'0 0.0
2017-Nov-15 17:29N 51°16' E 004°22'0 0.0
2017-Nov-15 16:59N 51°16' E 004°22'0 0.0
2017-Nov-15 16:26N 51°16' E 004°22'0 0.0
2017-Nov-15 15:59N 51°16' E 004°22'0 0.0
2017-Nov-15 15:29N 51°16' E 004°22'0 0.0
2017-Nov-15 14:56N 51°16' E 004°22'0 0.0
2017-Nov-15 14:29N 51°16' E 004°22'0 0.0
2017-Nov-15 13:59N 51°16' E 004°22'0 0.0
2017-Nov-15 13:29N 51°16' E 004°22'0 0.0
2017-Nov-15 12:59N 51°16' E 004°22'0 0.0
2017-Nov-15 12:29N 51°16' E 004°22'0 0.0
2017-Nov-15 11:59N 51°16' E 004°22'0 0.0
2017-Nov-15 11:29N 51°16' E 004°22'0 0.0
2017-Nov-15 10:53N 51°16' E 004°22'0 0.0
2017-Nov-15 10:26N 51°16' E 004°22'0 0.0
2017-Nov-15 09:59N 51°16' E 004°22'0 0.0
2017-Nov-15 09:29N 51°16' E 004°22'0 0.0
2017-Nov-15 08:56N 51°16' E 004°22'0 0.0
2017-Nov-15 08:29N 51°16' E 004°22'0 0.0
2017-Nov-15 07:59N 51°16' E 004°22'0 0.0
2017-Nov-15 07:29N 51°16' E 004°22'0 0.0
2017-Nov-15 06:59N 51°16' E 004°22'0 0.0
2017-Nov-15 06:26N 51°16' E 004°22'0 0.0
2017-Nov-15 05:53N 51°16' E 004°22'0 0.0
2017-Nov-15 05:29N 51°16' E 004°22'0 0.0
2017-Nov-15 04:56N 51°16' E 004°22'0 0.0
2017-Nov-15 04:29N 51°16' E 004°22'0 0.0
2017-Nov-15 03:59N 51°16' E 004°22'0 0.0
2017-Nov-15 03:29N 51°16' E 004°22'0 0.0
2017-Nov-15 02:59N 51°16' E 004°22'0 0.0
2017-Nov-15 02:29N 51°16' E 004°22'0 0.0
2017-Nov-15 01:53N 51°16' E 004°22'0 0.0
2017-Nov-15 01:29N 51°16' E 004°22'0 0.0
2017-Nov-15 00:59N 51°16' E 004°22'0 0.0
2017-Nov-15 00:29N 51°16' E 004°22'0 0.7
2017-Nov-15 00:00N 51°16' E 004°22'2 3.5
2017-Nov-14 23:30N 51°18' E 004°20'3 6.6
2017-Nov-14 23:00N 51°21' E 004°18'1 1.1
2017-Nov-14 22:30N 51°21' E 004°17'0 0.0
2017-Nov-14 22:00N 51°21' E 004°17'0 0.7
2017-Nov-14 21:30N 51°21' E 004°16'2 5.0
2017-Nov-14 21:00N 51°22' E 004°13'3 6.5
2017-Nov-14 20:30N 51°22' E 004°08'5 9.2
2017-Nov-14 20:00N 51°25' E 004°02'4 8.4
2017-Nov-14 19:30N 51°23' E 003°56'611.7
2017-Nov-14 19:00N 51°21' E 003°47'511.0
2017-Nov-14 18:30N 51°25' E 003°42'5 9.2
2017-Nov-14 18:00N 51°25' E 003°34'4 7.4
2017-Nov-14 17:30N 51°25' E 003°28'4 8.2
2017-Nov-14 17:00N 51°24' E 003°22'510.8
2017-Nov-14 16:30N 51°24' E 003°13'510.8
2017-Nov-14 16:00N 51°24' E 003°05'511.0
2017-Nov-14 15:30N 51°23' E 002°56'611.6
2017-Nov-14 14:58N 51°22' E 002°46'510.8
2017-Nov-14 14:30N 51°22' E 002°38'3 6.4
2017-Nov-14 14:00N 51°25' E 002°36'0 0.1
2017-Nov-14 13:26N 51°25' E 002°36'0 0.0
2017-Nov-14 12:56N 51°25' E 002°36'0 0.0
2017-Nov-14 12:29N 51°25' E 002°36'0 0.0
2017-Nov-14 11:44N 51°25' E 002°36'0 0.0
2017-Nov-14 11:23N 51°25' E 002°36'0 0.0
2017-Nov-14 10:59N 51°25' E 002°36'0 0.0
2017-Nov-14 10:26N 51°25' E 002°36'0 0.0
2017-Nov-14 09:44N 51°25' E 002°36'0 0.0
2017-Nov-14 09:26N 51°25' E 002°36'0 0.0
2017-Nov-14 08:59N 51°25' E 002°36'0 0.1
2017-Nov-14 08:29N 51°25' E 002°36'0 0.0
2017-Nov-14 07:56N 51°25' E 002°36'0 0.1
2017-Nov-14 07:29N 51°25' E 002°36'0 0.3
2017-Nov-14 06:59N 51°25' E 002°35'0 0.1
2017-Nov-14 06:29N 51°25' E 002°35'0 0.1
2017-Nov-14 05:47N 51°25' E 002°35'0 0.0
2017-Nov-14 05:29N 51°25' E 002°35'0 0.4
2017-Nov-14 04:58N 51°25' E 002°36'2 3.9
2017-Nov-14 04:29N 51°24' E 002°34'3 6.8
2017-Nov-14 04:00N 51°22' E 002°29'4 8.3
2017-Nov-14 03:31N 51°20' E 002°23'510.2
2017-Nov-14 03:00N 51°19' E 002°15'510.8
2017-Nov-14 02:30N 51°20' E 002°07'611.5
2017-Nov-14 02:00N 51°24' E 001°60'5 9.1
2017-Nov-14 01:31N 51°28' E 002°02'3 6.6
2017-Nov-14 01:01N 51°30' E 002°06'510.1
2017-Nov-14 00:30N 51°34' E 002°11'510.2
2017-Nov-14 00:01N 51°38' E 002°17'4 7.5
2017-Nov-13 23:31N 51°41' E 002°21'44510.8
2017-Nov-12 06:30N 57°48' E 009°34'510.5
2017-Nov-12 06:00N 57°49' E 009°44'610.9
2017-Nov-12 05:29N 57°50' E 009°54'511.1
2017-Nov-12 05:00N 57°49' E 010°05'611.4
2017-Nov-12 04:30N 57°49' E 010°15'611.3
2017-Nov-12 04:00N 57°49' E 010°26'611.0
2017-Nov-12 03:30N 57°49' E 010°36'510.9
2017-Nov-12 03:00N 57°48' E 010°46'611.5
2017-Nov-12 02:29N 57°43' E 010°54'611.8
2017-Nov-12 01:59N 57°40' E 011°02'511.2
2017-Nov-12 01:30N 57°36' E 011°10'611.6
2017-Nov-12 01:00N 57°32' E 011°18'611.4
2017-Nov-12 00:30N 57°28' E 011°26'611.1
2017-Nov-12 00:00N 57°23' E 011°29'611.5
2017-Nov-11 23:30N 57°18' E 011°33'611.4
2017-Nov-11 23:00N 57°12' E 011°37'611.4
2017-Nov-11 22:30N 57°07' E 011°40'711.6
2017-Nov-11 21:56N 57°01' E 011°44'10010.1
2017-Nov-11 11:58N 55°23' E 011°01'5 9.5
2017-Nov-11 11:29N 55°19' E 011°03'5 9.6
2017-Nov-11 11:00N 55°15' E 011°06'5 9.5
2017-Nov-11 10:31N 55°10' E 011°03'510.5
2017-Nov-11 10:00N 55°05' E 011°03'611.0
2017-Nov-11 09:31N 54°59' E 011°02'5 9.5
2017-Nov-11 09:00N 54°56' E 010°56'4 7.6
2017-Nov-11 08:31N 54°52' E 010°53'5 9.0
2017-Nov-11 08:00N 54°48' E 010°52'510.0
2017-Nov-11 07:30N 54°43' E 010°53'5 9.6
2017-Nov-11 07:00N 54°40' E 010°59'5 9.7
2017-Nov-11 06:30N 54°38' E 011°07'5 9.8
2017-Nov-11 06:00N 54°35' E 011°14'5 9.9
2017-Nov-11 05:30N 54°33' E 011°22'5 9.6
2017-Nov-11 05:00N 54°31' E 011°29'5 9.6
2017-Nov-11 04:30N 54°29' E 011°37'5 9.6
2017-Nov-11 04:00N 54°27' E 011°44'5 9.4
2017-Nov-11 03:30N 54°26' E 011°52'7 9.5
2017-Nov-11 02:47N 54°26' E 012°04'3 9.3
2017-Nov-11 02:30N 54°26' E 012°08'4 8.9
2017-Nov-11 02:00N 54°30' E 012°13'510.1
2017-Nov-11 01:30N 54°34' E 012°15'57 9.5
2017-Nov-10 19:27N 54°60' E 013°44'11 9.8
2017-Nov-10 18:18N 55°04' E 014°03'410.1
2017-Nov-10 17:55N 55°07' E 014°08'410.8
2017-Nov-10 17:30N 55°10' E 014°13'510.8
2017-Nov-10 17:00N 55°14' E 014°19'510.5
2017-Nov-10 16:30N 55°18' E 014°24'510.7
2017-Nov-10 16:00N 55°23' E 014°30'510.4
2017-Nov-10 15:30N 55°27' E 014°36'510.5
2017-Nov-10 15:00N 55°29' E 014°45'510.7
2017-Nov-10 14:30N 55°31' E 014°53'611.0
2017-Nov-10 13:59N 55°34' E 015°02'511.1
2017-Nov-10 13:30N 55°36' E 015°10'511.0
2017-Nov-10 13:00N 55°39' E 015°19'510.8
2017-Nov-10 12:30N 55°42' E 015°27'510.8
2017-Nov-10 12:00N 55°44' E 015°35'611.1
2017-Nov-10 11:30N 55°47' E 015°44'511.0
2017-Nov-10 11:00N 55°50' E 015°52'510.7
2017-Nov-10 10:30N 55°53' E 016°00'511.0
2017-Nov-10 10:00N 55°56' E 016°09'510.9
2017-Nov-10 09:30N 55°59' E 016°16'510.9
2017-Nov-10 09:00N 56°02' E 016°25'510.9
2017-Nov-10 08:30N 56°04' E 016°33'611.0
2017-Nov-10 08:00N 56°07' E 016°42'611.0
2017-Nov-10 07:30N 56°10' E 016°50'610.7
2017-Nov-10 06:55N 56°14' E 016°59'  

Dump ship's entire track history